Time;durP1;ratioP1;P1;durP2;ratioP2;P2;SDS_P1;SDS_P2;PMS_P1;PMS_P2;Temp;Humidity;BMP_temperature;BMP_pressure;BME280_temperature;BME280_humidity;BME280_pressure;Samples;Min_cycle;Max_cycle;Signal;HPM_P1;HPM_P2
2022/05/23 00:00:51;;;;;;;5.47;2.83;;;14.20;99.90;;;;;;5015537;28;20073;-73
2022/05/23 00:03:18;;;;;;;3.83;3.25;;;14.10;99.90;;;;;;5034831;28;20142;-74
2022/05/23 00:05:44;;;;;;;5.20;2.80;;;14.10;99.90;;;;;;5034781;28;20084;-73
2022/05/23 00:08:10;;;;;;;4.60;2.58;;;14.10;99.90;;;;;;5016056;28;20044;-73
2022/05/23 00:10:36;;;;;;;4.35;2.70;;;14.00;99.90;;;;;;5035064;28;20048;-73
2022/05/23 00:13:02;;;;;;;3.60;2.90;;;14.00;99.90;;;;;;5035532;28;20049;-74
2022/05/23 00:15:28;;;;;;;2.72;2.53;;;14.00;99.90;;;;;;5035679;28;20044;-74
2022/05/23 00:17:55;;;;;;;3.00;2.70;;;14.00;99.90;;;;;;5016823;28;20127;-73
2022/05/23 00:20:22;;;;;;;3.30;3.00;;;14.00;99.90;;;;;;5017849;28;20053;-74
2022/05/23 00:22:49;;;;;;;4.22;2.60;;;14.00;99.90;;;;;;5036137;28;20319;-74
2022/05/23 00:25:15;;;;;;;4.68;3.20;;;14.00;99.90;;;;;;5035975;28;20477;-74
2022/05/23 00:27:42;;;;;;;3.00;2.80;;;14.00;99.90;;;;;;5035249;28;20045;-74
2022/05/23 00:30:18;;;;;;;3.10;2.80;;;14.00;99.90;;;;;;5036157;28;20065;-74
2022/05/23 00:35:28;;;;;;;5.68;3.15;;;13.90;99.90;;;;;;5034306;28;20092;-74
2022/05/23 00:37:58;;;;;;;5.25;2.90;;;13.90;99.90;;;;;;5018317;28;20090;-74
2022/05/23 00:40:28;;;;;;;2.75;2.53;;;13.80;99.90;;;;;;5035692;28;20051;-73
2022/05/23 00:43:17;;;;;;;2.88;2.60;;;13.80;99.90;;;;;;5035778;28;20341;-73
2022/05/23 00:46:02;;;;;;;3.75;3.35;;;13.80;99.90;;;;;;5035583;28;20488;-73
2022/05/23 00:48:29;;;;;;;4.82;2.95;;;13.70;99.90;;;;;;5035806;28;20148;-74
2022/05/23 00:51:12;;;;;;;4.68;3.42;;;13.60;99.90;;;;;;5035956;28;20049;-74
2022/05/23 00:53:46;;;;;;;5.65;3.03;;;13.70;99.90;;;;;;5018084;28;20095;-73
2022/05/23 00:56:14;;;;;;;4.80;3.00;;;13.70;99.90;;;;;;5029866;28;20148;-75
2022/05/23 00:58:43;;;;;;;4.80;3.47;;;13.60;99.90;;;;;;5039665;28;20052;-73
2022/05/23 01:01:11;;;;;;;7.20;3.38;;;13.60;99.90;;;;;;5037437;28;20037;-73
2022/05/23 01:03:38;;;;;;;6.07;3.25;;;13.60;99.90;;;;;;5039039;28;20453;-74
2022/05/23 01:06:06;;;;;;;3.85;3.30;;;13.50;99.90;;;;;;5015963;28;20041;-74
2022/05/23 01:08:36;;;;;;;4.22;3.85;;;13.50;99.90;;;;;;5020146;28;20048;-74
2022/05/23 01:11:03;;;;;;;3.65;3.30;;;13.50;99.90;;;;;;5039542;28;20094;-74
2022/05/23 01:13:29;;;;;;;4.60;3.55;;;13.50;99.90;;;;;;5019614;28;20041;-74
2022/05/23 01:15:55;;;;;;;3.88;3.47;;;13.40;99.90;;;;;;5039625;28;20723;-74
2022/05/23 01:18:21;;;;;;;3.55;3.22;;;13.30;99.90;;;;;;5039011;28;20033;-74
2022/05/23 01:20:52;;;;;;;3.70;3.40;;;13.20;99.90;;;;;;5021039;28;20052;-73
2022/05/23 01:23:44;;;;;;;4.53;3.83;;;13.10;99.90;;;;;;5039152;28;20083;-74
2022/05/23 01:26:10;;;;;;;3.50;3.20;;;13.10;99.90;;;;;;5036993;28;20049;-74
2022/05/23 01:28:38;;;;;;;3.70;3.10;;;13.00;99.90;;;;;;5039151;28;20084;-73
2022/05/23 01:31:05;;;;;;;4.25;3.83;;;13.00;99.90;;;;;;5038544;28;20103;-74
2022/05/23 01:33:31;;;;;;;4.30;3.90;;;12.90;99.90;;;;;;5039139;28;20068;-73
2022/05/23 01:35:57;;;;;;;4.70;3.65;;;12.90;99.90;;;;;;5019623;28;20066;-74
2022/05/23 01:38:27;;;;;;;3.47;3.22;;;12.90;99.90;;;;;;5038445;28;20560;-73
2022/05/23 01:40:55;;;;;;;5.38;3.45;;;12.90;99.90;;;;;;5038579;28;20051;-73
2022/05/23 01:43:21;;;;;;;4.60;3.45;;;12.80;99.90;;;;;;5038631;28;20694;-73
2022/05/23 01:45:47;;;;;;;4.85;3.45;;;12.80;99.90;;;;;;5019472;28;20049;-73
2022/05/23 01:48:12;;;;;;;4.40;4.00;;;12.80;99.90;;;;;;5020431;28;20533;-75
2022/05/23 01:50:38;;;;;;;4.90;4.20;;;12.70;99.90;;;;;;5038666;28;20041;-72
2022/05/23 01:53:06;;;;;;;9.25;4.38;;;12.70;99.90;;;;;;5038098;28;20620;-74
2022/05/23 01:55:32;;;;;;;4.38;3.50;;;12.70;99.90;;;;;;5038705;28;20109;-74
2022/05/23 01:57:58;;;;;;;6.45;3.50;;;12.60;99.90;;;;;;5037714;28;20045;-75
2022/05/23 02:03:08;;;;;;;5.22;4.50;;;12.60;99.90;;;;;;5023282;28;20154;-75
2022/05/23 02:05:34;;;;;;;4.78;4.38;;;12.50;99.90;;;;;;5036488;28;20484;-73
2022/05/23 02:08:01;;;;;;;4.25;3.83;;;12.60;99.90;;;;;;5038241;28;20807;-73
2022/05/23 02:10:27;;;;;;;5.45;4.20;;;12.60;99.90;;;;;;5035103;28;20779;-74
2022/05/23 02:12:53;;;;;;;5.35;4.15;;;12.60;99.90;;;;;;5020119;28;20418;-74
2022/05/23 02:15:20;;;;;;;4.97;4.05;;;12.60;99.90;;;;;;5038065;28;20640;-73
2022/05/23 02:17:45;;;;;;;4.40;4.00;;;12.60;99.90;;;;;;5035569;28;20045;-74
2022/05/23 02:20:12;;;;;;;5.20;4.78;;;12.70;99.90;;;;;;5020549;28;20063;-75
2022/05/23 02:22:38;;;;;;;5.75;4.13;;;12.70;99.90;;;;;;5038226;28;20081;-74
2022/05/23 02:25:05;;;;;;;5.40;4.60;;;12.70;99.90;;;;;;5017120;28;20152;-74
2022/05/23 02:27:30;;;;;;;14.63;5.30;;;12.80;99.90;;;;;;5037761;28;20044;-74
2022/05/23 02:29:57;;;;;;;5.75;4.20;;;12.80;99.90;;;;;;5025385;28;20053;-73
2022/05/23 02:32:23;;;;;;;4.47;4.07;;;12.80;99.90;;;;;;5036244;28;20049;-73
2022/05/23 02:34:49;;;;;;;5.15;4.72;;;12.80;99.90;;;;;;5036694;28;20082;-74
2022/05/23 02:37:15;;;;;;;5.40;4.90;;;12.80;99.90;;;;;;5037059;28;20182;-74
2022/05/23 02:39:41;;;;;;;5.03;4.53;;;12.90;99.90;;;;;;5037984;28;20320;-73
2022/05/23 02:42:07;;;;;;;4.72;4.32;;;12.90;99.90;;;;;;5018946;28;20049;-73
2022/05/23 02:44:34;;;;;;;5.75;5.15;;;13.00;99.90;;;;;;5037260;28;20068;-73
2022/05/23 02:47:00;;;;;;;8.00;5.18;;;13.00;99.90;;;;;;5016224;28;20092;-74
2022/05/23 02:49:26;;;;;;;5.80;5.13;;;13.00;99.90;;;;;;5028081;28;20124;-73
2022/05/23 02:51:53;;;;;;;5.38;4.88;;;13.00;99.90;;;;;;5021184;28;20072;-74
2022/05/23 02:54:19;;;;;;;5.53;5.03;;;13.10;99.90;;;;;;5039386;28;20083;-74
2022/05/23 02:56:45;;;;;;;7.20;5.25;;;13.10;99.90;;;;;;5038669;28;20104;-73
2022/05/23 02:59:10;;;;;;;5.50;5.00;;;13.10;99.90;;;;;;5021173;28;20059;-73
2022/05/23 03:03:01;;;;;;;6.75;4.88;;;13.10;99.90;;;;;;5021630;28;20674;-74
2022/05/23 03:04:22;;;;;;;4.57;4.18;;;13.10;99.90;;;;;;5040029;28;20144;-74
2022/05/23 03:06:47;;;;;;;5.63;5.15;;;13.10;99.90;;;;;;5022159;28;20049;-74
2022/05/23 03:09:13;;;;;;;7.13;5.28;;;13.10;99.90;;;;;;5040042;28;20083;-74
2022/05/23 03:11:38;;;;;;;6.90;5.68;;;13.10;99.90;;;;;;5022525;28;20049;-74
2022/05/23 03:14:04;;;;;;;5.25;4.85;;;13.10;99.90;;;;;;5022626;28;20858;-73
2022/05/23 03:16:30;;;;;;;7.85;5.53;;;13.10;99.90;;;;;;5040654;28;20045;-73
2022/05/23 03:18:55;;;;;;;8.93;5.60;;;13.10;99.90;;;;;;5022353;28;20041;-73
2022/05/23 03:27:01;;;;;;;6.72;5.47;;;13.00;99.90;;;;;;5040328;28;20053;-74
2022/05/23 03:29:28;;;;;;;6.22;5.25;;;13.00;99.90;;;;;;5022186;28;20064;-74
2022/05/23 03:31:54;;;;;;;6.55;5.00;;;13.10;99.90;;;;;;5040560;28;20052;-74
2022/05/23 03:34:20;;;;;;;5.32;4.93;;;13.00;99.90;;;;;;5040353;28;20154;-73
2022/05/23 03:36:45;;;;;;;7.35;5.53;;;13.00;99.90;;;;;;5022421;28;20076;-73
2022/05/23 03:39:11;;;;;;;5.55;5.05;;;13.10;99.90;;;;;;5040163;28;20045;-73
2022/05/23 03:41:38;;;;;;;6.78;5.70;;;13.10;99.90;;;;;;5039913;28;20045;-74
2022/05/23 03:44:07;;;;;;;6.18;5.57;;;13.10;99.90;;;;;;5039654;28;20048;-73
2022/05/23 03:46:34;;;;;;;7.05;5.53;;;13.00;99.90;;;;;;5022158;28;20510;-73
2022/05/23 03:49:01;;;;;;;7.75;6.03;;;13.00;99.90;;;;;;5040108;28;20052;-73
2022/05/23 03:51:28;;;;;;;5.72;5.22;;;13.00;99.90;;;;;;5040087;28;20095;-74
2022/05/23 03:53:55;;;;;;;5.85;5.13;;;13.00;99.90;;;;;;5040049;28;20059;-73
2022/05/23 03:56:21;;;;;;;6.13;5.35;;;13.00;99.90;;;;;;5022165;28;20056;-73
2022/05/23 03:58:47;;;;;;;5.45;4.78;;;13.00;99.90;;;;;;5039976;28;20047;-75
2022/05/23 04:01:18;;;;;;;6.40;5.60;;;13.10;99.90;;;;;;5040004;28;20049;-74
2022/05/23 04:03:44;;;;;;;6.65;6.05;;;13.10;99.90;;;;;;5039805;28;20052;-74
2022/05/23 04:06:10;;;;;;;8.68;6.07;;;13.10;99.90;;;;;;5022082;28;20405;-74
2022/05/23 04:08:36;;;;;;;6.15;5.57;;;13.00;99.90;;;;;;5039611;28;20052;-74
2022/05/23 04:11:03;;;;;;;7.28;5.75;;;13.00;99.90;;;;;;5039857;28;20056;-74
2022/05/23 04:13:29;;;;;;;6.82;6.03;;;13.00;99.90;;;;;;5040073;28;20126;-74
2022/05/23 04:15:55;;;;;;;7.32;5.82;;;12.90;99.90;;;;;;5040325;28;20049;-74
2022/05/23 04:18:21;;;;;;;6.57;5.93;;;13.00;99.90;;;;;;5039911;28;20057;-74
2022/05/23 04:20:47;;;;;;;5.65;5.15;;;13.00;99.90;;;;;;5021800;28;20485;-74
2022/05/23 04:23:14;;;;;;;8.50;5.78;;;13.00;99.90;;;;;;5039504;28;20060;-75
2022/05/23 04:25:44;;;;;;;5.57;5.03;;;13.00;99.90;;;;;;5039899;28;20068;-74
2022/05/23 04:28:11;;;;;;;6.60;5.40;;;13.10;99.90;;;;;;5039642;28;20052;-74
2022/05/23 04:30:37;;;;;;;5.75;4.90;;;13.10;99.90;;;;;;5043754;28;20064;-75
2022/05/23 04:35:53;;;;;;;7.13;5.60;;;13.10;99.90;;;;;;5043280;28;20053;-75
2022/05/23 04:38:19;;;;;;;5.97;5.38;;;13.10;99.90;;;;;;5043092;28;20472;-73
2022/05/23 04:40:45;;;;;;;7.82;6.10;;;13.10;99.90;;;;;;5025266;28;20499;-74
2022/05/23 04:43:11;;;;;;;8.75;5.63;;;13.10;99.90;;;;;;5043193;28;20159;-73
2022/05/23 04:45:37;;;;;;;6.53;5.88;;;13.10;99.90;;;;;;5024928;28;20117;-75
2022/05/23 04:50:49;;;;;;;5.75;5.28;;;13.10;99.90;;;;;;5043315;28;20055;-75
2022/05/23 04:53:15;;;;;;;6.55;4.80;;;13.10;99.90;;;;;;5043175;28;20049;-74
2022/05/23 04:55:43;;;;;;;8.90;5.82;;;13.10;99.90;;;;;;5043873;28;20061;-73
2022/05/23 04:58:10;;;;;;;6.47;4.93;;;13.10;99.90;;;;;;5008375;28;20052;-74
2022/05/23 05:00:36;;;;;;;8.77;4.90;;;13.20;99.90;;;;;;5024832;28;20087;-74
2022/05/23 05:03:02;;;;;;;7.95;5.30;;;13.20;99.90;;;;;;5040315;28;20049;-72
2022/05/23 05:05:28;;;;;;;6.63;6.00;;;13.30;99.90;;;;;;5040456;28;20041;-75
2022/05/23 05:07:55;;;;;;;6.78;6.15;;;13.30;99.90;;;;;;5042187;28;20055;-72
2022/05/23 05:10:23;;;;;;;5.45;4.95;;;13.50;99.90;;;;;;5041622;28;20102;-74
2022/05/23 05:12:50;;;;;;;8.35;5.60;;;13.60;99.90;;;;;;5042303;28;20491;-74
2022/05/23 05:15:16;;;;;;;6.90;6.05;;;13.80;99.90;;;;;;5023979;28;20560;-73
2022/05/23 05:17:42;;;;;;;7.60;5.55;;;13.90;99.90;;;;;;5042166;28;20044;-75
2022/05/23 05:20:08;;;;;;;7.57;5.43;;;14.00;99.90;;;;;;5041559;28;20112;-74
2022/05/23 05:22:35;;;;;;;6.13;5.70;;;14.10;99.90;;;;;;5024615;28;20049;-74
2022/05/23 05:25:03;;;;;;;8.52;5.40;;;14.20;99.90;;;;;;5040810;28;20048;-74
2022/05/23 05:27:29;;;;;;;5.72;5.22;;;14.20;99.90;;;;;;5028026;28;20130;-74
2022/05/23 05:29:55;;;;;;;6.22;5.38;;;14.30;99.90;;;;;;5038649;28;20064;-75
2022/05/23 05:32:50;;;;;;;7.20;5.05;;;14.90;99.90;;;;;;5039434;28;20055;-74
2022/05/23 05:35:37;;;;;;;5.47;4.97;;;14.40;99.90;;;;;;5021709;28;20513;-75
2022/05/23 05:38:15;;;;;;;5.32;4.88;;;14.50;99.90;;;;;;5039217;28;20045;-73
2022/05/23 05:40:42;;;;;;;6.28;4.90;;;14.50;99.90;;;;;;5019219;28;20064;-74
2022/05/23 05:43:19;;;;;;;5.72;5.20;;;14.60;99.90;;;;;;5039143;28;20036;-75
2022/05/23 05:45:58;;;;;;;5.55;4.90;;;14.70;99.90;;;;;;5019808;28;20054;-75
2022/05/23 05:48:25;;;;;;;5.95;5.35;;;14.80;99.90;;;;;;5001142;28;20152;-74
2022/05/23 05:50:51;;;;;;;6.15;5.50;;;14.90;99.90;;;;;;5027409;28;20049;-74
2022/05/23 05:53:23;;;;;;;6.22;5.72;;;15.10;99.90;;;;;;5037397;28;20048;-74
2022/05/23 05:55:49;;;;;;;6.00;5.22;;;15.20;99.90;;;;;;5038045;28;20049;-74
2022/05/23 05:58:17;;;;;;;6.50;5.63;;;15.20;99.90;;;;;;5037665;28;20079;-75
2022/05/23 06:00:42;;;;;;;5.72;5.20;;;15.30;99.90;;;;;;5037470;28;20242;-74
2022/05/23 06:03:08;;;;;;;6.40;5.45;;;15.40;99.90;;;;;;5036738;28;20152;-75
2022/05/23 06:11:23;;;;;;;9.32;6.28;;;15.40;99.90;;;;;;4997201;28;20101;-75
2022/05/23 06:11:23;;;;;;;6.75;5.72;;;15.70;99.90;;;;;;5020862;28;20093;-75
2022/05/23 06:13:50;;;;;;;7.40;5.68;;;15.70;99.90;;;;;;5008509;28;20086;-75
2022/05/23 06:16:16;;;;;;;7.53;5.60;;;15.80;99.90;;;;;;5035332;28;20045;-74
2022/05/23 06:18:42;;;;;;;5.70;5.00;;;16.00;99.90;;;;;;5016908;28;20045;-75
2022/05/23 06:21:09;;;;;;;7.03;5.57;;;16.10;99.90;;;;;;5035919;28;20047;-74
2022/05/23 06:23:41;;;;;;;5.57;5.00;;;16.30;99.90;;;;;;5037531;28;20353;-75
2022/05/23 06:26:07;;;;;;;5.35;4.82;;;16.60;99.90;;;;;;5020920;28;20056;-75
2022/05/23 06:28:35;;;;;;;7.93;5.22;;;17.50;99.90;;;;;;5020046;28;20060;-75
2022/05/23 06:31:02;;;;;;;6.20;4.70;;;18.60;99.90;;;;;;5036686;28;20148;-76
2022/05/23 06:33:29;;;;;;;6.38;5.25;;;19.30;99.90;;;;;;5037732;28;20052;-77
2022/05/23 06:35:55;;;;;;;8.95;5.38;;;19.60;99.90;;;;;;5037637;28;20122;-74
2022/05/23 06:38:22;;;;;;;6.57;4.38;;;19.70;99.90;;;;;;5037932;28;20445;-74
2022/05/23 06:40:52;;;;;;;7.13;5.70;;;20.00;99.90;;;;;;5038242;28;20053;-75
2022/05/23 06:43:19;;;;;;;6.40;4.97;;;20.20;99.90;;;;;;5038080;28;20060;-75
2022/05/23 06:45:46;;;;;;;6.22;4.85;;;20.20;99.90;;;;;;5037362;28;20060;-74
2022/05/23 06:48:12;;;;;;;5.85;4.53;;;20.00;99.50;;;;;;5036748;28;20064;-73
2022/05/23 06:50:38;;;;;;;5.90;5.40;;;19.80;99.30;;;;;;5032956;28;20073;-75
2022/05/23 06:53:05;;;;;;;6.60;5.30;;;19.70;99.60;;;;;;4683066;28;10000530;-74
2022/05/23 06:55:30;;;;;;;5.82;5.22;;;19.50;99.60;;;;;;4683930;28;10000120;-75
2022/05/23 06:57:56;;;;;;;7.35;4.50;;;19.40;99.70;;;;;;5034521;28;20669;-75
2022/05/23 07:00:22;;;;;;;8.23;5.05;;;19.80;99.70;;;;;;5017872;28;20048;-75
2022/05/23 07:02:48;;;;;;;4.78;4.35;;;19.50;99.40;;;;;;5016204;28;20464;-75
2022/05/23 07:13:46;;;;;;;7.50;4.38;;;20.60;98.30;;;;;;5015677;28;20484;-76
2022/05/23 07:16:13;;;;;;;7.93;5.35;;;20.80;98.10;;;;;;5035914;28;20056;-76
2022/05/23 07:18:39;;;;;;;6.68;5.22;;;20.90;97.90;;;;;;5017010;28;20040;-76
2022/05/23 07:21:07;;;;;;;5.90;4.97;;;21.00;97.50;;;;;;5017403;28;20377;-76
2022/05/23 07:23:35;;;;;;;8.82;5.15;;;21.00;97.10;;;;;;5017410;28;20037;-76
2022/05/23 07:26:05;;;;;;;5.63;4.63;;;21.10;96.80;;;;;;5018264;28;20153;-73
2022/05/23 07:28:31;;;;;;;6.45;5.65;;;21.20;96.60;;;;;;5017257;28;20052;-75
2022/05/23 07:30:58;;;;;;;5.72;4.97;;;21.30;96.40;;;;;;5013016;28;20061;-74
2022/05/23 07:33:25;;;;;;;9.82;5.15;;;21.60;96.10;;;;;;5013909;28;20127;-75
2022/05/23 07:35:59;;;;;;;8.55;5.05;;;22.10;95.70;;;;;;5012724;28;20128;-75
2022/05/23 07:38:25;;;;;;;6.80;5.65;;;22.70;95.00;;;;;;5009473;28;20046;-76
2022/05/23 07:40:52;;;;;;;6.95;5.70;;;23.00;94.60;;;;;;5015460;28;20053;-75
2022/05/23 07:43:19;;;;;;;7.65;5.20;;;23.30;94.20;;;;;;5014361;28;20045;-75
2022/05/23 07:45:45;;;;;;;5.93;5.20;;;23.50;93.80;;;;;;5013708;28;20072;-76
2022/05/23 07:48:11;;;;;;;13.05;5.55;;;23.70;93.50;;;;;;5015279;28;20046;-75
2022/05/23 07:50:37;;;;;;;7.32;5.30;;;23.80;93.70;;;;;;4997364;28;20045;-77
2022/05/23 08:01:16;;;;;;;5.72;4.22;;;24.80;92.00;;;;;;5014702;28;20111;-78
2022/05/23 08:03:46;;;;;;;7.60;5.03;;;25.30;91.80;;;;;;5012621;28;20092;-78
2022/05/23 08:06:12;;;;;;;7.25;4.97;;;25.60;91.60;;;;;;5013148;28;20242;-76
2022/05/23 08:08:38;;;;;;;8.85;5.32;;;26.00;91.10;;;;;;5012566;28;20053;-79
2022/05/23 08:11:08;;;;;;;5.28;4.88;;;26.40;90.90;;;;;;5012928;28;20056;-77
2022/05/23 08:13:35;;;;;;;9.30;4.80;;;26.70;90.70;;;;;;5013172;28;20167;-78
2022/05/23 08:16:01;;;;;;;8.88;5.20;;;27.10;90.20;;;;;;5012167;28;20094;-77
2022/05/23 08:18:27;;;;;;;8.40;4.45;;;27.10;89.40;;;;;;5012325;28;20152;-79
2022/05/23 08:20:53;;;;;;;6.50;5.10;;;27.00;89.00;;;;;;5010360;28;20050;-77
2022/05/23 08:23:18;;;;;;;5.97;5.07;;;26.80;88.90;;;;;;5012838;28;20156;-77
2022/05/23 08:25:44;;;;;;;12.05;4.97;;;26.90;88.90;;;;;;4663970;28;10000232;-79
2022/05/23 08:28:10;;;;;;;5.38;4.40;;;26.70;88.10;;;;;;5010765;28;20195;-79
2022/05/23 08:30:36;;;;;;;4.78;4.35;;;26.60;87.90;;;;;;5027555;28;20169;-79
2022/05/23 08:33:02;;;;;;;7.80;4.85;;;26.60;87.90;;;;;;5034430;28;20052;-79
2022/05/23 08:35:28;;;;;;;7.43;4.65;;;26.50;87.60;;;;;;5015554;28;20044;-80
2022/05/23 08:37:54;;;;;;;8.80;5.05;;;26.80;87.60;;;;;;5012722;28;20049;-79
2022/05/23 08:40:29;;;;;;;8.27;4.47;;;27.10;87.20;;;;;;5031134;28;20049;-80
2022/05/23 08:42:57;;;;;;;7.47;5.78;;;27.20;86.40;;;;;;5008856;28;20041;-79
2022/05/23 08:45:35;;;;;;;9.10;4.45;;;27.30;84.90;;;;;;5033862;28;20041;-82
2022/05/23 08:48:22;;;;;;;5.05;4.55;;;27.50;84.70;;;;;;5031866;28;20087;-80
2022/05/23 08:51:01;;;;;;;7.20;4.70;;;27.40;84.80;;;;;;5032531;28;20499;-80
2022/05/23 08:53:45;;;;;;;5.20;4.25;;;27.50;84.70;;;;;;5011224;28;20127;-81
2022/05/23 08:56:42;;;;;;;7.40;4.60;;;27.90;84.90;;;;;;5029839;28;20131;-79
2022/05/23 08:59:38;;;;;;;6.00;4.30;;;28.50;84.10;;;;;;4991174;28;20053;-79
2022/05/23 09:02:37;;;;;;;7.35;3.90;;;28.90;83.30;;;;;;5030629;28;20485;-80
2022/05/23 09:05:17;;;;;;;5.07;3.95;;;29.10;81.20;;;;;;5015198;28;20323;-79
2022/05/23 09:07:51;;;;;;;5.65;4.13;;;29.20;80.80;;;;;;5012306;28;20048;-78
2022/05/23 09:10:39;;;;;;;6.82;3.67;;;29.60;82.10;;;;;;5033802;28;20049;-78
2022/05/23 09:13:07;;;;;;;7.43;3.83;;;29.70;79.90;;;;;;5015315;28;20045;-79
2022/05/23 09:15:33;;;;;;;5.55;3.70;;;29.80;80.70;;;;;;5036519;28;20051;-79
2022/05/23 09:18:04;;;;;;;4.47;3.25;;;29.60;79.80;;;;;;5037419;28;20234;-79
2022/05/23 09:20:40;;;;;;;4.20;2.83;;;29.60;78.30;;;;;;5037601;28;20048;-79
2022/05/23 09:23:24;;;;;;;5.03;3.20;;;29.30;77.50;;;;;;5035537;28;20479;-79
2022/05/23 09:25:52;;;;;;;4.75;4.20;;;29.60;77.90;;;;;;5036577;28;21173;-80
2022/05/23 09:28:37;;;;;;;5.80;3.97;;;29.60;77.70;;;;;;5018743;28;20045;-78
2022/05/23 09:31:14;;;;;;;4.95;3.58;;;29.40;77.50;;;;;;5035817;28;20744;-79
2022/05/23 09:33:48;;;;;;;5.30;3.30;;;29.50;78.30;;;;;;5019845;28;20110;-79
2022/05/23 09:36:19;;;;;;;5.07;3.53;;;29.40;77.40;;;;;;5036455;28;20059;-80
2022/05/23 09:38:47;;;;;;;5.30;3.90;;;29.50;77.50;;;;;;5032919;28;20103;-78
2022/05/23 09:49:55;;;;;;;3.83;2.92;;;29.60;77.90;;;;;;5039731;28;20084;-77
2022/05/23 09:52:25;;;;;;;4.97;3.33;;;29.20;76.50;;;;;;5041577;28;20099;-76
2022/05/23 09:55:08;;;;;;;5.40;3.28;;;28.70;75.80;;;;;;5040206;28;20099;-77
2022/05/23 09:57:33;;;;;;;;;;;28.30;75.80;;;;;;5036502;28;20044;-76
2022/05/23 10:00:04;;;;;;;3.30;2.80;;;27.90;75.80;;;;;;5036380;28;20501;-76
2022/05/23 10:02:31;;;;;;;5.15;2.67;;;28.00;76.30;;;;;;5035845;28;20118;-78
2022/05/23 10:04:58;;;;;;;5.18;2.90;;;27.90;75.70;;;;;;5036251;28;20049;-76
2022/05/23 10:07:34;;;;;;;3.85;2.60;;;28.00;75.40;;;;;;5036834;28;20416;-76
2022/05/23 10:10:22;;;;;;;3.25;2.38;;;28.30;76.10;;;;;;5031295;28;20446;-77
2022/05/23 10:12:49;;;;;;;6.10;2.50;;;28.50;75.60;;;;;;5035055;28;20045;-76
2022/05/23 10:15:28;;;;;;;2.60;2.40;;;28.30;74.90;;;;;;5036788;28;20079;-77
2022/05/23 10:18:01;;;;;;;3.22;2.63;;;28.00;74.70;;;;;;5036965;28;20049;-77
2022/05/23 10:20:28;;;;;;;4.80;2.80;;;27.60;74.50;;;;;;5036385;28;20080;-77
2022/05/23 10:22:56;;;;;;;5.05;2.90;;;27.40;75.10;;;;;;5036179;28;20045;-76
2022/05/23 10:25:23;;;;;;;4.40;2.35;;;27.20;75.60;;;;;;4996980;28;20048;-76
2022/05/23 10:27:53;;;;;;;3.30;2.38;;;27.20;76.40;;;;;;5015875;28;20853;-77
2022/05/23 10:30:23;;;;;;;3.30;2.00;;;27.30;76.00;;;;;;5037523;28;20582;-76
2022/05/23 10:32:54;;;;;;;2.42;2.00;;;27.10;74.60;;;;;;5036027;28;20850;-77
2022/05/23 10:35:44;;;;;;;4.43;2.53;;;27.10;74.00;;;;;;5018435;28;20489;-77
2022/05/23 10:44:31;;;;;;;2.65;1.92;;;27.10;73.40;;;;;;5033429;28;20168;-76
2022/05/23 10:47:11;;;;;;;2.42;2.22;;;27.10;73.00;;;;;;5029657;28;20047;-76
2022/05/23 10:49:51;;;;;;;5.88;2.85;;;27.50;73.40;;;;;;5018053;28;20555;-73
2022/05/23 10:53:05;;;;;;;4.35;2.50;;;27.80;74.20;;;;;;5037314;28;20053;-78
2022/05/23 10:55:43;;;;;;;2.15;1.65;;;28.10;75.30;;;;;;5036156;28;20057;-78
2022/05/23 10:58:36;;;;;;;2.83;2.45;;;28.40;74.80;;;;;;5020938;28;20077;-80
2022/05/23 11:01:08;;;;;;;;;;;28.50;74.10;;;;;;5038365;28;20080;-80
2022/05/23 11:03:43;;;;;;;3.95;2.80;;;28.40;73.20;;;;;;5016415;28;19924;-79
2022/05/23 11:06:45;;;;;;;5.97;2.80;;;28.30;72.60;;;;;;5039653;28;20084;-79
2022/05/23 11:09:25;;;;;;;3.33;2.70;;;28.20;73.10;;;;;;5003331;28;20053;-80
2022/05/23 11:12:13;;;;;;;5.18;2.80;;;27.90;73.30;;;;;;5039137;28;20056;-80
2022/05/23 11:15:13;;;;;;;3.35;2.20;;;27.60;73.10;;;;;;5037828;28;20055;-79
2022/05/23 11:18:12;;;;;;;6.13;2.97;;;27.60;73.10;;;;;;5038085;28;20132;-79
2022/05/23 11:20:40;;;;;;;4.30;2.80;;;27.60;72.50;;;;;;5038011;28;20049;-79
2022/05/23 11:23:20;;;;;;;3.17;2.42;;;27.50;72.30;;;;;;5038888;28;20056;-77
2022/05/23 11:25:51;;;;;;;2.92;2.20;;;27.50;74.40;;;;;;5038425;28;20595;-78
2022/05/23 11:34:15;;;;;;;2.78;2.30;;;27.10;72.30;;;;;;5038451;28;20549;-80
2022/05/23 11:36:57;;;;;;;4.07;2.65;;;27.00;72.70;;;;;;5018067;28;20067;-76
2022/05/23 11:40:01;;;;;;;5.28;2.67;;;27.00;72.40;;;;;;5019510;28;20051;-76
2022/05/23 11:42:32;;;;;;;2.33;2.22;;;26.90;73.40;;;;;;5024671;28;20048;-76
2022/05/23 11:45:57;;;;;;;3.10;2.10;;;26.80;72.00;;;;;;5028477;28;20051;-79
2022/05/23 11:47:56;;;;;;;3.30;2.10;;;26.80;74.70;;;;;;5031809;28;20103;-77
2022/05/23 11:50:30;;;;;;;6.22;2.50;;;27.00;72.00;;;;;;5009844;28;20087;-76
2022/05/23 11:53:26;;;;;;;2.85;2.15;;;27.20;72.40;;;;;;5030300;28;20135;-75
2022/05/23 11:55:55;;;;;;;2.70;2.17;;;27.30;73.20;;;;;;5016123;28;20308;-75
2022/05/23 11:58:44;;;;;;;2.50;2.00;;;27.50;72.40;;;;;;5034364;28;20056;-76
2022/05/23 12:01:16;;;;;;;3.47;2.15;;;27.40;72.10;;;;;;5033866;28;20139;-76
2022/05/23 12:03:47;;;;;;;3.17;2.10;;;27.50;72.60;;;;;;5032825;28;20056;-77
2022/05/23 12:06:23;;;;;;;2.55;2.08;;;27.70;73.30;;;;;;5019523;28;20106;-76
2022/05/23 12:09:00;;;;;;;2.45;2.25;;;27.90;72.30;;;;;;5020560;28;20084;-75
2022/05/23 12:11:27;;;;;;;4.57;2.80;;;27.80;71.20;;;;;;5032060;28;20075;-75
2022/05/23 12:13:58;;;;;;;3.80;2.40;;;27.80;71.30;;;;;;5039114;28;20094;-76
2022/05/23 12:16:30;;;;;;;5.78;3.03;;;27.70;71.60;;;;;;5032923;28;20049;-77
2022/05/23 12:19:23;;;;;;;3.70;2.65;;;27.50;71.50;;;;;;5019502;28;20102;-76
2022/05/23 12:21:51;;;;;;;2.63;2.20;;;27.30;72.80;;;;;;5036676;28;20107;-76
2022/05/23 12:24:23;;;;;;;2.28;2.08;;;27.20;72.00;;;;;;5007607;28;20174;-76
2022/05/23 12:26:53;;;;;;;2.53;2.33;;;27.20;71.80;;;;;;5039382;28;20060;-75
2022/05/23 12:29:35;;;;;;;2.88;2.08;;;27.20;72.20;;;;;;5001496;28;20092;-75
2022/05/23 12:32:25;;;;;;;7.43;3.10;;;27.30;73.30;;;;;;5005504;28;20049;-75
2022/05/23 12:34:54;;;;;;;4.28;2.67;;;27.60;72.90;;;;;;5018360;28;20779;-76
2022/05/23 12:37:28;;;;;;;4.95;2.05;;;27.70;72.30;;;;;;5017007;28;20944;-75
2022/05/23 12:40:07;;;;;;;4.22;2.45;;;27.90;72.90;;;;;;5018830;28;20045;-75
2022/05/23 12:42:51;;;;;;;3.30;3.00;;;27.80;71.40;;;;;;5018841;28;20718;-76
2022/05/23 12:45:29;;;;;;;3.22;2.83;;;27.60;71.10;;;;;;5014232;28;20077;-76
2022/05/23 12:47:54;;;;;;;3.70;2.80;;;27.50;72.20;;;;;;5019331;28;20054;-76
2022/05/23 12:50:47;;;;;;;3.10;2.80;;;27.30;72.40;;;;;;5021240;28;20591;-76
2022/05/23 12:53:41;;;;;;;5.25;3.15;;;27.10;72.70;;;;;;5005427;28;20053;-75
2022/05/23 12:56:28;;;;;;;4.38;2.60;;;26.80;73.70;;;;;;5008953;28;20054;-75
2022/05/23 12:59:12;;;;;;;4.03;2.70;;;26.70;73.60;;;;;;5003506;28;20073;-75
2022/05/23 13:01:42;;;;;;;4.90;2.90;;;26.60;74.40;;;;;;5009084;28;20090;-74
2022/05/23 13:04:14;;;;;;;4.85;2.90;;;26.60;74.70;;;;;;5004003;28;21123;-75
2022/05/23 13:06:58;;;;;;;3.63;2.95;;;26.60;74.80;;;;;;5008356;28;20061;-75
2022/05/23 13:09:32;;;;;;;4.43;2.70;;;26.70;74.60;;;;;;5008358;28;20809;-75
2022/05/23 13:12:05;;;;;;;3.67;2.63;;;26.70;74.30;;;;;;5017247;28;20050;-75
2022/05/23 13:14:53;;;;;;;2.80;2.60;;;26.80;74.70;;;;;;5019216;28;20846;-76
2022/05/23 13:17:43;;;;;;;6.25;2.88;;;27.00;73.80;;;;;;5013580;28;20794;-75
2022/05/23 13:23:11;;;;;;;4.72;2.60;;;27.10;73.60;;;;;;5018679;28;20057;-76
2022/05/23 13:25:37;;;;;;;4.95;2.63;;;27.00;73.60;;;;;;5019100;28;20473;-76
2022/05/23 13:28:08;;;;;;;4.45;3.17;;;26.90;74.00;;;;;;5018588;28;20049;-75
2022/05/23 13:30:42;;;;;;;6.55;2.88;;;26.80;73.40;;;;;;5017770;28;20413;-75
2022/05/23 13:33:16;;;;;;;5.22;2.70;;;26.50;74.70;;;;;;5019858;28;20481;-75
2022/05/23 13:35:44;;;;;;;6.63;2.90;;;26.40;74.80;;;;;;4995867;28;20410;-75
2022/05/23 13:38:28;;;;;;;3.42;2.53;;;26.30;76.00;;;;;;5018267;28;20160;-75
2022/05/23 13:40:57;;;;;;;6.15;3.38;;;26.10;77.70;;;;;;5016993;28;20060;-75
2022/05/23 13:43:30;;;;;;;3.53;2.72;;;26.00;78.40;;;;;;5018597;28;20060;-75
2022/05/23 13:46:11;;;;;;;4.78;2.88;;;25.90;78.80;;;;;;5012510;28;20049;-75
2022/05/23 13:48:36;;;;;;;3.40;2.65;;;25.70;79.20;;;;;;5011906;28;20053;-76
2022/05/23 13:51:08;;;;;;;4.95;3.20;;;25.70;78.90;;;;;;5018043;28;20049;-75
2022/05/23 13:54:00;;;;;;;6.13;3.25;;;25.60;79.20;;;;;;5017635;28;20053;-76
2022/05/23 13:56:27;;;;;;;4.80;2.80;;;25.60;78.80;;;;;;5018230;28;20123;-76
2022/05/23 13:58:58;;;;;;;4.53;3.42;;;25.60;79.00;;;;;;5017088;28;20477;-75
2022/05/23 14:01:43;;;;;;;4.30;3.15;;;25.60;79.80;;;;;;5016193;28;20515;-75
2022/05/23 14:04:12;;;;;;;5.25;3.00;;;25.60;79.60;;;;;;5008803;28;20037;-76
2022/05/23 14:06:52;;;;;;;3.22;2.97;;;25.60;79.50;;;;;;5018443;28;20048;-75
2022/05/23 14:09:18;;;;;;;8.27;3.58;;;25.70;80.20;;;;;;5018913;28;20749;-82